sensor_id;sensor_type;location;lat;lon;timestamp;P1;P2;P0
55754;PMS5003;41674;52.290;-1.474;2023-04-02T00:01:16;3;3;
55754;PMS5003;41674;52.290;-1.474;2023-04-02T00:08:37;2;2;
55754;PMS5003;41674;52.290;-1.474;2023-04-02T00:11:06;5;5;
55754;PMS5003;41674;52.290;-1.474;2023-04-02T00:13:38;4;4;
55754;PMS5003;41674;52.290;-1.474;2023-04-02T00:16:06;4;4;
55754;PMS5003;41674;52.290;-1.474;2023-04-02T00:18:36;4;4;
55754;PMS5003;41674;52.290;-1.474;2023-04-02T00:21:10;3;3;
55754;PMS5003;41674;52.290;-1.474;2023-04-02T00:23:35;3;3;
55754;PMS5003;41674;52.290;-1.474;2023-04-02T00:26:06;2;2;
55754;PMS5003;41674;52.290;-1.474;2023-04-02T00:28:34;4;3;
55754;PMS5003;41674;52.290;-1.474;2023-04-02T00:31:03;2;2;
55754;PMS5003;41674;52.290;-1.474;2023-04-02T00:33:33;4;4;
55754;PMS5003;41674;52.290;-1.474;2023-04-02T00:36:04;2;2;
55754;PMS5003;41674;52.290;-1.474;2023-04-02T00:38:32;3;2;
55754;PMS5003;41674;52.290;-1.474;2023-04-02T00:41:03;3;2;
55754;PMS5003;41674;52.290;-1.474;2023-04-02T00:43:33;2;2;
55754;PMS5003;41674;52.290;-1.474;2023-04-02T00:46:02;1;1;
55754;PMS5003;41674;52.290;-1.474;2023-04-02T00:48:38;1;1;
55754;PMS5003;41674;52.290;-1.474;2023-04-02T00:51:07;2;0;
55754;PMS5003;41674;52.290;-1.474;2023-04-02T00:53:36;3;3;
55754;PMS5003;41674;52.290;-1.474;2023-04-02T00:55:59;2;2;
55754;PMS5003;41674;52.290;-1.474;2023-04-02T00:58:31;3;3;
55754;PMS5003;41674;52.290;-1.474;2023-04-02T01:00:59;3;3;
55754;PMS5003;41674;52.290;-1.474;2023-04-02T01:03:34;1;1;
55754;PMS5003;41674;52.290;-1.474;2023-04-02T01:05:59;3;2;
55754;PMS5003;41674;52.290;-1.474;2023-04-02T01:08:30;1;1;
55754;PMS5003;41674;52.290;-1.474;2023-04-02T01:10:58;2;2;
55754;PMS5003;41674;52.290;-1.474;2023-04-02T01:13:28;1;1;
55754;PMS5003;41674;52.290;-1.474;2023-04-02T01:15:58;3;3;
55754;PMS5003;41674;52.290;-1.474;2023-04-02T01:18:30;0;0;
55754;PMS5003;41674;52.290;-1.474;2023-04-02T01:21:04;3;3;
55754;PMS5003;41674;52.290;-1.474;2023-04-02T01:23:26;4;3;
55754;PMS5003;41674;52.290;-1.474;2023-04-02T01:25:57;3;3;
55754;PMS5003;41674;52.290;-1.474;2023-04-02T01:28:26;4;3;
55754;PMS5003;41674;52.290;-1.474;2023-04-02T01:30:55;3;3;
55754;PMS5003;41674;52.290;-1.474;2023-04-02T01:33:27;4;4;
55754;PMS5003;41674;52.290;-1.474;2023-04-02T01:35:54;4;4;
55754;PMS5003;41674;52.290;-1.474;2023-04-02T01:38:24;4;3;
55754;PMS5003;41674;52.290;-1.474;2023-04-02T01:40:54;3;3;
55754;PMS5003;41674;52.290;-1.474;2023-04-02T01:43:24;3;3;
55754;PMS5003;41674;52.290;-1.474;2023-04-02T01:45:52;4;3;
55754;PMS5003;41674;52.290;-1.474;2023-04-02T01:48:23;3;3;
55754;PMS5003;41674;52.290;-1.474;2023-04-02T01:50:52;5;3;
55754;PMS5003;41674;52.290;-1.474;2023-04-02T01:53:22;3;3;
55754;PMS5003;41674;52.290;-1.474;2023-04-02T01:55:52;3;3;
55754;PMS5003;41674;52.290;-1.474;2023-04-02T01:58:22;4;3;
55754;PMS5003;41674;52.290;-1.474;2023-04-02T02:00:56;4;4;
55754;PMS5003;41674;52.290;-1.474;2023-04-02T02:03:20;3;3;
55754;PMS5003;41674;52.290;-1.474;2023-04-02T02:05:54;3;2;
55754;PMS5003;41674;52.290;-1.474;2023-04-02T02:08:22;3;3;
55754;PMS5003;41674;52.290;-1.474;2023-04-02T02:10:48;4;3;
55754;PMS5003;41674;52.290;-1.474;2023-04-02T02:13:18;4;4;
55754;PMS5003;41674;52.290;-1.474;2023-04-02T02:15:48;3;3;
55754;PMS5003;41674;52.290;-1.474;2023-04-02T02:18:18;4;4;
55754;PMS5003;41674;52.290;-1.474;2023-04-02T02:20:47;4;4;
55754;PMS5003;41674;52.290;-1.474;2023-04-02T02:23:16;4;3;
55754;PMS5003;41674;52.290;-1.474;2023-04-02T02:25:46;3;3;
55754;PMS5003;41674;52.290;-1.474;2023-04-02T02:28:16;5;3;
55754;PMS5003;41674;52.290;-1.474;2023-04-02T02:33:16;4;4;
55754;PMS5003;41674;52.290;-1.474;2023-04-02T02:40:44;5;4;
55754;PMS5003;41674;52.290;-1.474;2023-04-02T02:43:14;4;4;
55754;PMS5003;41674;52.290;-1.474;2023-04-02T02:45:43;2;2;
55754;PMS5003;41674;52.290;-1.474;2023-04-02T02:48:14;3;3;
55754;PMS5003;41674;52.290;-1.474;2023-04-02T02:50:42;4;3;
55754;PMS5003;41674;52.290;-1.474;2023-04-02T02:53:15;3;3;
55754;PMS5003;41674;52.290;-1.474;2023-04-02T02:55:42;3;3;
55754;PMS5003;41674;52.290;-1.474;2023-04-02T02:58:13;5;5;
55754;PMS5003;41674;52.290;-1.474;2023-04-02T03:00:41;4;4;
55754;PMS5003;41674;52.290;-1.474;2023-04-02T03:03:11;5;4;
55754;PMS5003;41674;52.290;-1.474;2023-04-02T03:05:40;5;5;
55754;PMS5003;41674;52.290;-1.474;2023-04-02T03:08:11;3;3;
55754;PMS5003;41674;52.290;-1.474;2023-04-02T03:10:41;4;4;
55754;PMS5003;41674;52.290;-1.474;2023-04-02T03:13:11;7;5;
55754;PMS5003;41674;52.290;-1.474;2023-04-02T03:15:40;7;7;
55754;PMS5003;41674;52.290;-1.474;2023-04-02T03:18:10;5;5;
55754;PMS5003;41674;52.290;-1.474;2023-04-02T03:20:38;5;5;
55754;PMS5003;41674;52.290;-1.474;2023-04-02T03:23:10;6;4;
55754;PMS5003;41674;52.290;-1.474;2023-04-02T03:25:39;4;4;
55754;PMS5003;41674;52.290;-1.474;2023-04-02T03:28:12;4;3;
55754;PMS5003;41674;52.290;-1.474;2023-04-02T03:30:37;7;7;
55754;PMS5003;41674;52.290;-1.474;2023-04-02T03:33:08;6;6;
55754;PMS5003;41674;52.290;-1.474;2023-04-02T03:35:36;7;5;
55754;PMS5003;41674;52.290;-1.474;2023-04-02T03:38:05;9;8;
55754;PMS5003;41674;52.290;-1.474;2023-04-02T03:40:36;5;5;
55754;PMS5003;41674;52.290;-1.474;2023-04-02T03:43:09;7;6;
55754;PMS5003;41674;52.290;-1.474;2023-04-02T03:45:34;7;6;
55754;PMS5003;41674;52.290;-1.474;2023-04-02T03:48:04;9;8;
55754;PMS5003;41674;52.290;-1.474;2023-04-02T03:50:34;7;6;
55754;PMS5003;41674;52.290;-1.474;2023-04-02T03:53:03;11;9;
55754;PMS5003;41674;52.290;-1.474;2023-04-02T03:55:34;6;6;
55754;PMS5003;41674;52.290;-1.474;2023-04-02T03:58:03;10;10;
55754;PMS5003;41674;52.290;-1.474;2023-04-02T04:00:32;9;9;
55754;PMS5003;41674;52.290;-1.474;2023-04-02T04:03:02;11;9;
55754;PMS5003;41674;52.290;-1.474;2023-04-02T04:05:32;10;10;
55754;PMS5003;41674;52.290;-1.474;2023-04-02T04:08:02;11;8;
55754;PMS5003;41674;52.290;-1.474;2023-04-02T04:10:30;10;9;
55754;PMS5003;41674;52.290;-1.474;2023-04-02T04:13:01;13;11;
55754;PMS5003;41674;52.290;-1.474;2023-04-02T04:15:30;11;11;
55754;PMS5003;41674;52.290;-1.474;2023-04-02T04:18:00;8;7;
55754;PMS5003;41674;52.290;-1.474;2023-04-02T04:20:29;9;9;
55754;PMS5003;41674;52.290;-1.474;2023-04-02T04:25:27;15;11;
55754;PMS5003;41674;52.290;-1.474;2023-04-02T04:27:58;13;12;
55754;PMS5003;41674;52.290;-1.474;2023-04-02T04:30:27;10;10;
55754;PMS5003;41674;52.290;-1.474;2023-04-02T04:32:56;11;10;
55754;PMS5003;41674;52.290;-1.474;2023-04-02T04:35:25;12;10;
55754;PMS5003;41674;52.290;-1.474;2023-04-02T04:37:54;10;10;
55754;PMS5003;41674;52.290;-1.474;2023-04-02T04:40:25;12;10;
55754;PMS5003;41674;52.290;-1.474;2023-04-02T04:42:54;12;11;
55754;PMS5003;41674;52.290;-1.474;2023-04-02T04:45:28;14;11;
55754;PMS5003;41674;52.290;-1.474;2023-04-02T04:47:53;15;13;
55754;PMS5003;41674;52.290;-1.474;2023-04-02T04:50:24;12;10;
55754;PMS5003;41674;52.290;-1.474;2023-04-02T04:52:52;11;11;
55754;PMS5003;41674;52.290;-1.474;2023-04-02T04:55:23;15;13;
55754;PMS5003;41674;52.290;-1.474;2023-04-02T04:57:50;14;12;
55754;PMS5003;41674;52.290;-1.474;2023-04-02T05:00:21;11;11;
55754;PMS5003;41674;52.290;-1.474;2023-04-02T05:02:49;13;12;
55754;PMS5003;41674;52.290;-1.474;2023-04-02T05:05:19;13;11;
55754;PMS5003;41674;52.290;-1.474;2023-04-02T05:07:49;13;13;
55754;PMS5003;41674;52.290;-1.474;2023-04-02T05:10:18;13;13;
55754;PMS5003;41674;52.290;-1.474;2023-04-02T05:12:48;15;12;
55754;PMS5003;41674;52.290;-1.474;2023-04-02T05:15:17;15;11;
55754;PMS5003;41674;52.290;-1.474;2023-04-02T05:17:47;13;12;
55754;PMS5003;41674;52.290;-1.474;2023-04-02T05:20:16;13;13;
55754;PMS5003;41674;52.290;-1.474;2023-04-02T05:22:46;15;12;
55754;PMS5003;41674;52.290;-1.474;2023-04-02T05:25:16;14;13;
55754;PMS5003;41674;52.290;-1.474;2023-04-02T05:27:45;16;14;
55754;PMS5003;41674;52.290;-1.474;2023-04-02T05:32:44;16;13;
55754;PMS5003;41674;52.290;-1.474;2023-04-02T05:35:16;19;15;
55754;PMS5003;41674;52.290;-1.474;2023-04-02T05:37:41;14;14;
55754;PMS5003;41674;52.290;-1.474;2023-04-02T05:40:12;9;9;
55754;PMS5003;41674;52.290;-1.474;2023-04-02T05:42:42;14;12;
55754;PMS5003;41674;52.290;-1.474;2023-04-02T05:45:14;15;13;
55754;PMS5003;41674;52.290;-1.474;2023-04-02T05:47:39;16;12;
55754;PMS5003;41674;52.290;-1.474;2023-04-02T05:50:13;15;13;
55754;PMS5003;41674;52.290;-1.474;2023-04-02T05:52:38;15;13;
55754;PMS5003;41674;52.290;-1.474;2023-04-02T05:57:38;19;17;
55754;PMS5003;41674;52.290;-1.474;2023-04-02T06:00:07;19;16;
55754;PMS5003;41674;52.290;-1.474;2023-04-02T06:02:37;12;12;
55754;PMS5003;41674;52.290;-1.474;2023-04-02T06:05:05;16;12;
55754;PMS5003;41674;52.290;-1.474;2023-04-02T06:07:39;11;10;
55754;PMS5003;41674;52.290;-1.474;2023-04-02T06:10:04;12;12;
55754;PMS5003;41674;52.290;-1.474;2023-04-02T06:12:36;14;12;
55754;PMS5003;41674;52.290;-1.474;2023-04-02T06:15:03;16;15;
55754;PMS5003;41674;52.290;-1.474;2023-04-02T06:17:33;15;13;
55754;PMS5003;41674;52.290;-1.474;2023-04-02T06:20:01;17;16;
55754;PMS5003;41674;52.290;-1.474;2023-04-02T06:22:31;16;15;
55754;PMS5003;41674;52.290;-1.474;2023-04-02T06:25:01;20;16;
55754;PMS5003;41674;52.290;-1.474;2023-04-02T06:27:30;20;19;
55754;PMS5003;41674;52.290;-1.474;2023-04-02T06:30:01;14;13;
55754;PMS5003;41674;52.290;-1.474;2023-04-02T06:32:29;16;13;
55754;PMS5003;41674;52.290;-1.474;2023-04-02T06:34:58;17;15;
55754;PMS5003;41674;52.290;-1.474;2023-04-02T06:37:28;21;17;
55754;PMS5003;41674;52.290;-1.474;2023-04-02T06:39:57;21;16;
55754;PMS5003;41674;52.290;-1.474;2023-04-02T06:42:27;20;18;
55754;PMS5003;41674;52.290;-1.474;2023-04-02T06:44:56;17;17;
55754;PMS5003;41674;52.290;-1.474;2023-04-02T06:47:28;17;17;
55754;PMS5003;41674;52.290;-1.474;2023-04-02T06:49:57;18;17;
55754;PMS5003;41674;52.290;-1.474;2023-04-02T06:52:24;18;15;
55754;PMS5003;41674;52.290;-1.474;2023-04-02T06:54:53;18;15;
55754;PMS5003;41674;52.290;-1.474;2023-04-02T06:57:23;21;15;
55754;PMS5003;41674;52.290;-1.474;2023-04-02T06:59:52;18;14;
55754;PMS5003;41674;52.290;-1.474;2023-04-02T07:02:25;16;15;
55754;PMS5003;41674;52.290;-1.474;2023-04-02T07:04:50;14;13;
55754;PMS5003;41674;52.290;-1.474;2023-04-02T07:07:19;12;11;
55754;PMS5003;41674;52.290;-1.474;2023-04-02T07:09:49;14;11;
55754;PMS5003;41674;52.290;-1.474;2023-04-02T07:12:19;16;15;
55754;PMS5003;41674;52.290;-1.474;2023-04-02T07:14:49;14;13;
55754;PMS5003;41674;52.290;-1.474;2023-04-02T07:17:18;10;10;
55754;PMS5003;41674;52.290;-1.474;2023-04-02T07:19:47;10;9;
55754;PMS5003;41674;52.290;-1.474;2023-04-02T07:22:17;14;13;
55754;PMS5003;41674;52.290;-1.474;2023-04-02T07:24:46;14;13;
55754;PMS5003;41674;52.290;-1.474;2023-04-02T07:27:16;11;11;
55754;PMS5003;41674;52.290;-1.474;2023-04-02T07:29:45;14;12;
55754;PMS5003;41674;52.290;-1.474;2023-04-02T07:32:15;13;11;
55754;PMS5003;41674;52.290;-1.474;2023-04-02T07:34:44;12;11;
55754;PMS5003;41674;52.290;-1.474;2023-04-02T07:37:14;16;13;
55754;PMS5003;41674;52.290;-1.474;2023-04-02T07:39:44;11;11;
55754;PMS5003;41674;52.290;-1.474;2023-04-02T07:42:19;10;9;
55754;PMS5003;41674;52.290;-1.474;2023-04-02T07:44:48;11;10;
55754;PMS5003;41674;52.290;-1.474;2023-04-02T07:47:13;9;9;
55754;PMS5003;41674;52.290;-1.474;2023-04-02T07:49:42;17;15;
55754;PMS5003;41674;52.290;-1.474;2023-04-02T07:52:17;12;11;
55754;PMS5003;41674;52.290;-1.474;2023-04-02T07:54:41;13;11;
55754;PMS5003;41674;52.290;-1.474;2023-04-02T07:57:11;11;9;
55754;PMS5003;41674;52.290;-1.474;2023-04-02T07:59:40;12;11;
55754;PMS5003;41674;52.290;-1.474;2023-04-02T08:04:39;11;10;
55754;PMS5003;41674;52.290;-1.474;2023-04-02T08:07:09;11;11;
55754;PMS5003;41674;52.290;-1.474;2023-04-02T08:09:38;11;10;
55754;PMS5003;41674;52.290;-1.474;2023-04-02T08:12:08;14;12;
55754;PMS5003;41674;52.290;-1.474;2023-04-02T08:14:37;16;13;
55754;PMS5003;41674;52.290;-1.474;2023-04-02T08:17:07;10;10;
55754;PMS5003;41674;52.290;-1.474;2023-04-02T08:19:36;11;9;
55754;PMS5003;41674;52.290;-1.474;2023-04-02T08:22:06;13;11;
55754;PMS5003;41674;52.290;-1.474;2023-04-02T08:24:35;12;12;
55754;PMS5003;41674;52.290;-1.474;2023-04-02T08:27:05;11;10;
55754;PMS5003;41674;52.290;-1.474;2023-04-02T08:29:36;9;9;
55754;PMS5003;41674;52.290;-1.474;2023-04-02T08:32:09;9;9;
55754;PMS5003;41674;52.290;-1.474;2023-04-02T08:34:33;10;8;
55754;PMS5003;41674;52.290;-1.474;2023-04-02T08:37:03;8;7;
55754;PMS5003;41674;52.290;-1.474;2023-04-02T08:39:33;8;7;
55754;PMS5003;41674;52.290;-1.474;2023-04-02T08:42:03;8;8;
55754;PMS5003;41674;52.290;-1.474;2023-04-02T08:44:39;10;10;
55754;PMS5003;41674;52.290;-1.474;2023-04-02T08:47:02;9;8;
55754;PMS5003;41674;52.290;-1.474;2023-04-02T08:49:31;10;9;
55754;PMS5003;41674;52.290;-1.474;2023-04-02T08:52:00;7;6;
55754;PMS5003;41674;52.290;-1.474;2023-04-02T08:54:31;10;7;
55754;PMS5003;41674;52.290;-1.474;2023-04-02T08:57:01;7;7;
55754;PMS5003;41674;52.290;-1.474;2023-04-02T08:59:30;9;8;
55754;PMS5003;41674;52.290;-1.474;2023-04-02T09:02:02;9;9;
55754;PMS5003;41674;52.290;-1.474;2023-04-02T09:04:29;6;6;
55754;PMS5003;41674;52.290;-1.474;2023-04-02T09:06:58;10;7;
55754;PMS5003;41674;52.290;-1.474;2023-04-02T09:09:28;9;6;
55754;PMS5003;41674;52.290;-1.474;2023-04-02T09:11:58;9;7;
55754;PMS5003;41674;52.290;-1.474;2023-04-02T09:14:30;12;10;
55754;PMS5003;41674;52.290;-1.474;2023-04-02T09:16:58;5;5;
55754;PMS5003;41674;52.290;-1.474;2023-04-02T09:19:30;10;9;
55754;PMS5003;41674;52.290;-1.474;2023-04-02T09:22:03;11;6;
55754;PMS5003;41674;52.290;-1.474;2023-04-02T09:24:26;9;6;
55754;PMS5003;41674;52.290;-1.474;2023-04-02T09:26:56;6;5;
55754;PMS5003;41674;52.290;-1.474;2023-04-02T09:29:35;6;6;
55754;PMS5003;41674;52.290;-1.474;2023-04-02T09:31:56;9;7;
55754;PMS5003;41674;52.290;-1.474;2023-04-02T09:34:26;7;7;
55754;PMS5003;41674;52.290;-1.474;2023-04-02T09:36:55;5;5;
55754;PMS5003;41674;52.290;-1.474;2023-04-02T09:39:24;6;6;
55754;PMS5003;41674;52.290;-1.474;2023-04-02T09:41:54;6;5;
55754;PMS5003;41674;52.290;-1.474;2023-04-02T09:44:24;5;5;
55754;PMS5003;41674;52.290;-1.474;2023-04-02T09:46:54;7;6;
55754;PMS5003;41674;52.290;-1.474;2023-04-02T09:49:23;7;5;
55754;PMS5003;41674;52.290;-1.474;2023-04-02T09:54:23;9;8;
55754;PMS5003;41674;52.290;-1.474;2023-04-02T09:56:58;7;6;
55754;PMS5003;41674;52.290;-1.474;2023-04-02T09:59:21;6;6;
55754;PMS5003;41674;52.290;-1.474;2023-04-02T10:01:56;5;5;
55754;PMS5003;41674;52.290;-1.474;2023-04-02T10:04:30;8;7;
55754;PMS5003;41674;52.290;-1.474;2023-04-02T10:06:50;7;6;
55754;PMS5003;41674;52.290;-1.474;2023-04-02T10:09:26;8;7;
55754;PMS5003;41674;52.290;-1.474;2023-04-02T10:11:50;5;5;
55754;PMS5003;41674;52.290;-1.474;2023-04-02T10:14:20;4;4;
55754;PMS5003;41674;52.290;-1.474;2023-04-02T10:16:49;7;6;
55754;PMS5003;41674;52.290;-1.474;2023-04-02T10:19:22;9;8;
55754;PMS5003;41674;52.290;-1.474;2023-04-02T10:21:48;6;6;
55754;PMS5003;41674;52.290;-1.474;2023-04-02T10:24:17;8;7;
55754;PMS5003;41674;52.290;-1.474;2023-04-02T10:26:50;6;6;
55754;PMS5003;41674;52.290;-1.474;2023-04-02T10:29:24;5;5;
55754;PMS5003;41674;52.290;-1.474;2023-04-02T10:36:55;9;9;
55754;PMS5003;41674;52.290;-1.474;2023-04-02T10:39:24;8;5;
55754;PMS5003;41674;52.290;-1.474;2023-04-02T10:54:18;7;7;
55754;PMS5003;41674;52.290;-1.474;2023-04-02T10:56:43;8;7;
55754;PMS5003;41674;52.290;-1.474;2023-04-02T10:59:16;10;5;
55754;PMS5003;41674;52.290;-1.474;2023-04-02T11:01:42;7;5;
55754;PMS5003;41674;52.290;-1.474;2023-04-02T11:04:17;4;4;
55754;PMS5003;41674;52.290;-1.474;2023-04-02T11:06:48;9;6;
55754;PMS5003;41674;52.290;-1.474;2023-04-02T11:09:23;10;7;
55754;PMS5003;41674;52.290;-1.474;2023-04-02T11:16:40;8;5;
55754;PMS5003;41674;52.290;-1.474;2023-04-02T11:21:40;12;8;
55754;PMS5003;41674;52.290;-1.474;2023-04-02T11:26:39;8;6;
55754;PMS5003;41674;52.290;-1.474;2023-04-02T11:44:17;5;5;
55754;PMS5003;41674;52.290;-1.474;2023-04-02T11:46:40;10;8;
55754;PMS5003;41674;52.290;-1.474;2023-04-02T11:56:34;6;6;
55754;PMS5003;41674;52.290;-1.474;2023-04-02T12:01:43;7;4;
55754;PMS5003;41674;52.290;-1.474;2023-04-02T12:04:09;4;4;
55754;PMS5003;41674;52.290;-1.474;2023-04-02T12:06:34;7;7;
55754;PMS5003;41674;52.290;-1.474;2023-04-02T12:09:03;5;5;
55754;PMS5003;41674;52.290;-1.474;2023-04-02T12:11:32;5;5;
55754;PMS5003;41674;52.290;-1.474;2023-04-02T12:14:01;7;6;
55754;PMS5003;41674;52.290;-1.474;2023-04-02T12:16:36;7;5;
55754;PMS5003;41674;52.290;-1.474;2023-04-02T12:19:01;4;4;
55754;PMS5003;41674;52.290;-1.474;2023-04-02T12:21:30;6;6;
55754;PMS5003;41674;52.290;-1.474;2023-04-02T12:23:59;6;6;
55754;PMS5003;41674;52.290;-1.474;2023-04-02T12:26:30;7;7;
55754;PMS5003;41674;52.290;-1.474;2023-04-02T12:31:29;8;6;
55754;PMS5003;41674;52.290;-1.474;2023-04-02T12:34:03;9;7;
55754;PMS5003;41674;52.290;-1.474;2023-04-02T12:36:27;8;7;
55754;PMS5003;41674;52.290;-1.474;2023-04-02T12:38:57;3;3;
55754;PMS5003;41674;52.290;-1.474;2023-04-02T12:41:27;5;4;
55754;PMS5003;41674;52.290;-1.474;2023-04-02T12:44:02;6;4;
55754;PMS5003;41674;52.290;-1.474;2023-04-02T12:46:26;5;4;
55754;PMS5003;41674;52.290;-1.474;2023-04-02T12:48:59;3;3;
55754;PMS5003;41674;52.290;-1.474;2023-04-02T12:51:25;5;5;
55754;PMS5003;41674;52.290;-1.474;2023-04-02T12:53:54;7;4;
55754;PMS5003;41674;52.290;-1.474;2023-04-02T12:56:24;5;5;
55754;PMS5003;41674;52.290;-1.474;2023-04-02T12:58:54;5;3;
55754;PMS5003;41674;52.290;-1.474;2023-04-02T13:01:24;5;3;
55754;PMS5003;41674;52.290;-1.474;2023-04-02T13:03:59;3;3;
55754;PMS5003;41674;52.290;-1.474;2023-04-02T13:06:27;2;2;
55754;PMS5003;41674;52.290;-1.474;2023-04-02T13:08:52;6;4;
55754;PMS5003;41674;52.290;-1.474;2023-04-02T13:11:21;7;4;
55754;PMS5003;41674;52.290;-1.474;2023-04-02T13:13:51;5;4;
55754;PMS5003;41674;52.290;-1.474;2023-04-02T13:16:23;15;11;
55754;PMS5003;41674;52.290;-1.474;2023-04-02T13:21:22;4;4;
55754;PMS5003;41674;52.290;-1.474;2023-04-02T13:23:49;4;4;
55754;PMS5003;41674;52.290;-1.474;2023-04-02T13:26:19;6;6;
55754;PMS5003;41674;52.290;-1.474;2023-04-02T13:28:55;12;8;
55754;PMS5003;41674;52.290;-1.474;2023-04-02T13:31:17;7;6;
55754;PMS5003;41674;52.290;-1.474;2023-04-02T13:33:47;11;11;
55754;PMS5003;41674;52.290;-1.474;2023-04-02T13:36:16;13;12;
55754;PMS5003;41674;52.290;-1.474;2023-04-02T13:38:46;4;4;
55754;PMS5003;41674;52.290;-1.474;2023-04-02T13:41:17;4;3;
55754;PMS5003;41674;52.290;-1.474;2023-04-02T13:43:45;9;8;
55754;PMS5003;41674;52.290;-1.474;2023-04-02T13:46:16;5;5;
55754;PMS5003;41674;52.290;-1.474;2023-04-02T13:48:44;5;4;
55754;PMS5003;41674;52.290;-1.474;2023-04-02T13:51:14;6;6;
55754;PMS5003;41674;52.290;-1.474;2023-04-02T13:53:43;3;3;
55754;PMS5003;41674;52.290;-1.474;2023-04-02T13:56:12;5;5;
55754;PMS5003;41674;52.290;-1.474;2023-04-02T13:58:44;5;5;
55754;PMS5003;41674;52.290;-1.474;2023-04-02T14:01:11;4;4;
55754;PMS5003;41674;52.290;-1.474;2023-04-02T14:03:41;6;6;
55754;PMS5003;41674;52.290;-1.474;2023-04-02T14:06:11;17;15;
55754;PMS5003;41674;52.290;-1.474;2023-04-02T14:08:43;28;22;
55754;PMS5003;41674;52.290;-1.474;2023-04-02T14:11:14;3;2;
55754;PMS5003;41674;52.290;-1.474;2023-04-02T14:13:47;15;12;
55754;PMS5003;41674;52.290;-1.474;2023-04-02T14:16:14;8;8;
55754;PMS5003;41674;52.290;-1.474;2023-04-02T14:18:43;6;5;
55754;PMS5003;41674;52.290;-1.474;2023-04-02T14:21:10;5;5;
55754;PMS5003;41674;52.290;-1.474;2023-04-02T14:23:41;4;4;
55754;PMS5003;41674;52.290;-1.474;2023-04-02T14:26:08;5;4;
55754;PMS5003;41674;52.290;-1.474;2023-04-02T14:28:38;3;3;
55754;PMS5003;41674;52.290;-1.474;2023-04-02T14:31:08;6;4;
55754;PMS5003;41674;52.290;-1.474;2023-04-02T14:33:37;5;2;
55754;PMS5003;41674;52.290;-1.474;2023-04-02T14:36:06;2;2;
55754;PMS5003;41674;52.290;-1.474;2023-04-02T14:38:35;3;3;
55754;PMS5003;41674;52.290;-1.474;2023-04-02T14:41:05;3;3;
55754;PMS5003;41674;52.290;-1.474;2023-04-02T14:43:35;29;28;
55754;PMS5003;41674;52.290;-1.474;2023-04-02T14:46:04;39;33;
55754;PMS5003;41674;52.290;-1.474;2023-04-02T14:48:39;16;13;
55754;PMS5003;41674;52.290;-1.474;2023-04-02T14:51:03;5;5;
55754;PMS5003;41674;52.290;-1.474;2023-04-02T14:53:32;5;5;
55754;PMS5003;41674;52.290;-1.474;2023-04-02T14:56:06;11;8;
55754;PMS5003;41674;52.290;-1.474;2023-04-02T14:58:32;4;4;
55754;PMS5003;41674;52.290;-1.474;2023-04-02T15:01:00;3;3;
55754;PMS5003;41674;52.290;-1.474;2023-04-02T15:03:31;3;3;
55754;PMS5003;41674;52.290;-1.474;2023-04-02T15:06:05;3;2;
55754;PMS5003;41674;52.290;-1.474;2023-04-02T15:08:29;3;3;
55754;PMS5003;41674;52.290;-1.474;2023-04-02T15:10:59;4;3;
55754;PMS5003;41674;52.290;-1.474;2023-04-02T15:13:29;3;3;
55754;PMS5003;41674;52.290;-1.474;2023-04-02T15:15:57;5;4;
55754;PMS5003;41674;52.290;-1.474;2023-04-02T15:18:26;5;4;
55754;PMS5003;41674;52.290;-1.474;2023-04-02T15:20:58;5;3;
55754;PMS5003;41674;52.290;-1.474;2023-04-02T15:23:29;2;2;
55754;PMS5003;41674;52.290;-1.474;2023-04-02T15:26:08;2;2;
55754;PMS5003;41674;52.290;-1.474;2023-04-02T15:28:29;3;2;
55754;PMS5003;41674;52.290;-1.474;2023-04-02T15:30:55;2;2;
55754;PMS5003;41674;52.290;-1.474;2023-04-02T15:35:53;6;4;
55754;PMS5003;41674;52.290;-1.474;2023-04-02T15:38:23;2;2;
55754;PMS5003;41674;52.290;-1.474;2023-04-02T15:40:58;1;1;
55754;PMS5003;41674;52.290;-1.474;2023-04-02T15:43:23;3;1;
55754;PMS5003;41674;52.290;-1.474;2023-04-02T15:45:53;5;2;
55754;PMS5003;41674;52.290;-1.474;2023-04-02T15:48:28;2;2;
55754;PMS5003;41674;52.290;-1.474;2023-04-02T15:50:53;2;2;
55754;PMS5003;41674;52.290;-1.474;2023-04-02T15:53:25;5;2;
55754;PMS5003;41674;52.290;-1.474;2023-04-02T15:55:50;4;2;
55754;PMS5003;41674;52.290;-1.474;2023-04-02T15:58:20;3;2;
55754;PMS5003;41674;52.290;-1.474;2023-04-02T16:00:50;3;3;
55754;PMS5003;41674;52.290;-1.474;2023-04-02T16:05:49;5;3;
55754;PMS5003;41674;52.290;-1.474;2023-04-02T16:08:25;1;1;
55754;PMS5003;41674;52.290;-1.474;2023-04-02T16:10:45;3;3;
55754;PMS5003;41674;52.290;-1.474;2023-04-02T16:13:17;1;1;
55754;PMS5003;41674;52.290;-1.474;2023-04-02T16:15:45;3;3;
55754;PMS5003;41674;52.290;-1.474;2023-04-02T16:18:14;1;1;
55754;PMS5003;41674;52.290;-1.474;2023-04-02T16:20:45;3;2;
55754;PMS5003;41674;52.290;-1.474;2023-04-02T16:23:14;3;3;
55754;PMS5003;41674;52.290;-1.474;2023-04-02T16:25:44;1;1;
55754;PMS5003;41674;52.290;-1.474;2023-04-02T16:28:14;5;3;
55754;PMS5003;41674;52.290;-1.474;2023-04-02T16:30:44;3;3;
55754;PMS5003;41674;52.290;-1.474;2023-04-02T16:33:15;1;1;
55754;PMS5003;41674;52.290;-1.474;2023-04-02T16:35:42;2;2;
55754;PMS5003;41674;52.290;-1.474;2023-04-02T16:38:14;3;3;
55754;PMS5003;41674;52.290;-1.474;2023-04-02T16:40:45;1;1;
55754;PMS5003;41674;52.290;-1.474;2023-04-02T16:43:13;4;2;
55754;PMS5003;41674;52.290;-1.474;2023-04-02T16:45:40;2;2;
55754;PMS5003;41674;52.290;-1.474;2023-04-02T16:48:10;2;2;
55754;PMS5003;41674;52.290;-1.474;2023-04-02T16:50:39;1;1;
55754;PMS5003;41674;52.290;-1.474;2023-04-02T16:53:12;2;2;
55754;PMS5003;41674;52.290;-1.474;2023-04-02T16:55:41;5;3;
55754;PMS5003;41674;52.290;-1.474;2023-04-02T16:58:11;3;3;
55754;PMS5003;41674;52.290;-1.474;2023-04-02T17:00:37;2;2;
55754;PMS5003;41674;52.290;-1.474;2023-04-02T17:05:44;4;4;
55754;PMS5003;41674;52.290;-1.474;2023-04-02T17:08:08;3;2;
55754;PMS5003;41674;52.290;-1.474;2023-04-02T17:10:36;4;4;
55754;PMS5003;41674;52.290;-1.474;2023-04-02T17:15:34;2;2;
55754;PMS5003;41674;52.290;-1.474;2023-04-02T17:18:07;2;2;
55754;PMS5003;41674;52.290;-1.474;2023-04-02T17:20:32;4;2;
55754;PMS5003;41674;52.290;-1.474;2023-04-02T17:23:05;4;3;
55754;PMS5003;41674;52.290;-1.474;2023-04-02T17:25:32;4;4;
55754;PMS5003;41674;52.290;-1.474;2023-04-02T17:28:08;1;1;
55754;PMS5003;41674;52.290;-1.474;2023-04-02T17:32:59;5;4;
55754;PMS5003;41674;52.290;-1.474;2023-04-02T17:35:36;3;3;
55754;PMS5003;41674;52.290;-1.474;2023-04-02T17:38:01;3;3;
55754;PMS5003;41674;52.290;-1.474;2023-04-02T17:40:30;3;3;
55754;PMS5003;41674;52.290;-1.474;2023-04-02T17:42:59;5;5;
55754;PMS5003;41674;52.290;-1.474;2023-04-02T17:45:30;6;5;
55754;PMS5003;41674;52.290;-1.474;2023-04-02T17:48:03;5;4;
55754;PMS5003;41674;52.290;-1.474;2023-04-02T17:50:31;4;4;
55754;PMS5003;41674;52.290;-1.474;2023-04-02T17:52:57;3;3;
55754;PMS5003;41674;52.290;-1.474;2023-04-02T17:55:28;5;4;
55754;PMS5003;41674;52.290;-1.474;2023-04-02T17:57:57;4;4;
55754;PMS5003;41674;52.290;-1.474;2023-04-02T18:02:58;4;4;
55754;PMS5003;41674;52.290;-1.474;2023-04-02T18:05:27;3;3;
55754;PMS5003;41674;52.290;-1.474;2023-04-02T18:07:56;3;3;
55754;PMS5003;41674;52.290;-1.474;2023-04-02T18:10:32;3;3;
55754;PMS5003;41674;52.290;-1.474;2023-04-02T18:12:54;4;4;
55754;PMS5003;41674;52.290;-1.474;2023-04-02T18:15:31;5;2;